Terminal Aerodrome Forecast
Issued by NWS

Home | Current Version | Previous Version | Text Only | Print | Product List | Glossary On
Versions: 1 2 3 4 5 6 7 8 9 10 11 12 13 14
206
FTUS43 KTOP 241120
TAFFOE
TAF
KFOE 241120Z 2412/2512 16008KT P6SM SCT250
     FM241800 16012G18KT P6SM VCTS SCT050 SCT100CB
     FM250200 18010KT P6SM BKN150
     FM250800 19006KT P6SM VCTS BKN060CB=

USA.gov is the U.S. government's official web portal to all federal, state and local government web resources and services.